Time;durP1;ratioP1;P1;durP2;ratioP2;P2;SDS_P1;SDS_P2;PMS_P1;PMS_P2;Temp;Humidity;BMP_temperature;BMP_pressure;BME280_temperature;BME280_humidity;BME280_pressure;Samples;Min_cycle;Max_cycle;Signal;HPM_P1;HPM_P2
2022/04/02 00:03:14;;;;;;;16.12;8.27;;;;;;;6.58;60.86;98644.31;18368908;32;20102;-67
2022/04/02 00:13:18;;;;;;;15.90;8.65;;;;;;;6.58;61.89;98656.44;18368827;32;20107;-67
2022/04/02 00:23:40;;;;;;;18.17;8.68;;;;;;;5.92;63.85;98659.81;18368685;32;20437;-66
2022/04/02 00:33:45;;;;;;;15.32;8.65;;;;;;;6.37;62.16;98648.06;18367688;32;20119;-67
2022/04/02 00:44:00;;;;;;;21.42;8.93;;;;;;;5.97;63.80;98629.53;18367613;32;20450;-67
2022/04/02 00:54:03;;;;;;;15.40;8.60;;;;;;;5.24;65.39;98639.78;18367600;32;20115;-66
2022/04/02 01:04:08;;;;;;;17.05;8.52;;;;;;;5.45;65.52;98656.81;18367039;32;20101;-66
2022/04/02 01:14:12;;;;;;;18.95;9.00;;;;;;;5.56;65.05;98646.38;18366877;32;20158;-67
2022/04/02 01:24:17;;;;;;;15.05;7.60;;;;;;;5.38;64.67;98642.25;18366721;32;20094;-66
2022/04/02 01:34:21;;;;;;;12.85;6.28;;;;;;;4.68;67.80;98653.97;18366113;32;20090;-66
2022/04/02 01:44:26;;;;;;;14.82;7.55;;;;;;;4.64;66.62;98657.44;18365653;32;20089;-66
2022/04/02 01:54:29;;;;;;;14.13;6.87;;;;;;;4.62;67.09;98673.81;18365463;32;20158;-66
2022/04/02 02:04:34;;;;;;;17.25;8.30;;;;;;;4.95;67.30;98670.16;18365183;32;20093;-67
2022/04/02 02:14:37;;;;;;;16.30;8.18;;;;;;;5.24;65.80;98673.41;18364158;32;20148;-66
2022/04/02 02:24:42;;;;;;;17.55;8.35;;;;;;;5.61;63.55;98682.56;18363420;32;20144;-66
2022/04/02 02:45:08;;;;;;;12.73;7.03;;;;;;;5.34;63.46;98695.75;18370437;32;20172;-66
2022/04/02 02:55:12;;;;;;;16.42;8.63;;;;;;;5.52;63.19;98702.47;18370670;32;20517;-67
2022/04/02 03:05:19;;;;;;;16.10;7.53;;;;;;;5.68;61.97;98695.44;18371361;32;20085;-67
2022/04/02 03:15:22;;;;;;;17.83;8.85;;;;;;;6.05;61.84;98698.53;18370752;32;20464;-67
2022/04/02 03:25:27;;;;;;;16.25;7.45;;;;;;;5.83;63.68;98703.94;18370192;32;20098;-66
2022/04/02 03:35:30;;;;;;;17.48;8.10;;;;;;;6.15;62.91;98705.34;18369590;32;20124;-66
2022/04/02 03:45:35;;;;;;;19.00;9.07;;;;;;;6.57;59.65;98724.72;18368626;32;20102;-68
2022/04/02 03:55:39;;;;;;;17.67;8.35;;;;;;;6.18;62.92;98732.94;18367998;32;20093;-66
2022/04/02 04:05:44;;;;;;;15.18;7.72;;;;;;;5.81;61.58;98731.56;18368591;32;20116;-66
2022/04/02 04:15:47;;;;;;;14.75;8.27;;;;;;;6.26;60.23;98746.69;18368554;32;20112;-66
2022/04/02 04:25:52;;;;;;;16.77;7.65;;;;;;;6.09;61.24;98747.72;18368249;32;20109;-66
2022/04/02 04:35:55;;;;;;;15.38;6.68;;;;;;;6.07;60.44;98757.25;18367733;32;20116;-66
2022/04/02 04:45:59;;;;;;;16.05;7.78;;;;;;;6.01;60.56;98754.66;18367585;32;20085;-66
2022/04/02 04:56:03;;;;;;;15.98;7.82;;;;;;;5.90;60.34;98757.38;18360814;32;20093;-66
2022/04/02 05:06:09;;;;;;;14.68;7.93;;;;;;;5.87;60.67;98765.16;18361412;32;20104;-66
2022/04/02 05:16:12;;;;;;;18.30;8.32;;;;;;;5.80;60.44;98763.53;18369247;32;20355;-66
2022/04/02 05:26:17;;;;;;;16.92;7.95;;;;;;;6.05;59.93;98771.94;18367331;32;20104;-66
2022/04/02 05:36:27;;;;;;;17.58;6.78;;;;;;;6.26;58.45;98793.31;18367456;32;20089;-66
2022/04/02 05:46:31;;;;;;;14.27;7.90;;;;;;;6.36;58.51;98792.34;18366309;32;20093;-66
2022/04/02 05:56:35;;;;;;;14.63;7.70;;;;;;;6.40;60.09;98808.72;18366736;32;20124;-66
2022/04/02 06:06:39;;;;;;;16.60;7.47;;;;;;;6.71;58.08;98808.38;18366227;32;20112;-66
2022/04/02 06:16:43;;;;;;;16.02;8.15;;;;;;;6.66;58.03;98828.34;18369997;32;20111;-66
2022/04/02 06:26:48;;;;;;;17.27;8.52;;;;;;;7.17;57.50;98821.63;18373901;32;20151;-66
2022/04/02 06:36:51;;;;;;;15.82;7.00;;;;;;;6.90;56.59;98821.13;18372524;32;20113;-66
2022/04/02 06:46:56;;;;;;;15.07;6.25;;;;;;;6.34;59.76;98826.94;18372454;32;20104;-66
2022/04/02 06:56:59;;;;;;;14.90;7.40;;;;;;;6.38;61.41;98849.38;18373130;32;20135;-66
2022/04/02 07:07:04;;;;;;;15.52;7.62;;;;;;;6.82;59.00;98860.13;18371578;32;20390;-66
2022/04/02 07:17:07;;;;;;;13.82;7.32;;;;;;;6.96;58.22;98875.53;18371806;32;20112;-66
2022/04/02 07:27:12;;;;;;;14.80;7.18;;;;;;;7.02;58.48;98880.66;18371135;32;20097;-66
2022/04/02 07:37:21;;;;;;;16.00;8.68;;;;;;;7.13;58.14;98882.25;18370791;32;20359;-66
2022/04/02 07:47:31;;;;;;;15.57;8.05;;;;;;;6.93;59.12;98883.34;18233425;32;20593;-66
2022/04/02 07:57:39;;;;;;;16.52;8.52;;;;;;;7.19;58.17;98893.41;18238813;32;20116;-66
2022/04/02 08:07:49;;;;;;;16.17;8.57;;;;;;;7.31;58.76;98892.41;18341662;32;20423;-67
2022/04/02 08:17:55;;;;;;;18.25;9.35;;;;;;;7.20;59.35;98907.22;18365457;32;20101;-66
2022/04/02 08:28:05;;;;;;;17.60;9.02;;;;;;;7.04;59.40;98916.94;18369691;32;20107;-66
2022/04/02 08:38:19;;;;;;;22.35;9.30;;;;;;;7.35;58.82;98919.16;18368250;32;20208;-66
2022/04/02 08:48:27;;;;;;;19.70;9.02;;;;;;;7.63;59.09;98926.56;18362044;32;20097;-66
2022/04/02 08:58:52;;;;;;;18.77;9.32;;;;;;;6.75;61.88;98950.13;18360627;32;20108;-67
2022/04/02 09:09:06;;;;;;;16.73;7.47;;;;;;;6.86;61.22;98952.59;18335601;32;20107;-66
2022/04/02 09:19:14;;;;;;;18.80;9.23;;;;;;;6.88;63.24;98968.16;18364326;32;20134;-67
2022/04/02 09:29:26;;;;;;;16.85;9.50;;;;;;;6.65;63.08;98977.03;18333033;32;20164;-67
2022/04/02 09:39:52;;;;;;;18.45;8.95;;;;;;;6.81;63.24;98980.31;18366353;32;20187;-66
2022/04/02 09:50:09;;;;;;;16.48;8.80;;;;;;;6.82;64.87;98997.59;18366053;32;20080;-66
2022/04/02 10:00:16;;;;;;;19.62;10.57;;;;;;;7.30;63.45;98994.53;18363998;32;20443;-66
2022/04/02 10:10:26;;;;;;;18.27;9.18;;;;;;;7.65;62.88;98997.56;18364819;32;20094;-66
2022/04/02 10:20:31;;;;;;;16.35;8.45;;;;;;;7.58;62.12;99009.75;18363057;32;20107;-67
2022/04/02 10:30:39;;;;;;;16.12;7.85;;;;;;;7.42;64.38;99013.44;18364242;32;20125;-66
2022/04/02 10:40:46;;;;;;;17.90;8.30;;;;;;;7.45;65.35;99018.56;18363708;32;20112;-66
2022/04/02 10:50:51;;;;;;;15.35;7.57;;;;;;;7.82;63.81;99020.72;18364299;32;20104;-67
2022/04/02 11:00:56;;;;;;;14.93;7.50;;;;;;;7.85;64.14;99030.22;18366545;32;20097;-66
2022/04/02 11:11:15;;;;;;;21.05;9.65;;;;;;;7.61;65.09;99027.91;18371455;32;20097;-64
2022/04/02 11:21:19;;;;;;;15.68;8.05;;;;;;;7.45;67.38;99044.53;18372614;32;20129;-64
2022/04/02 11:31:29;;;;;;;18.65;8.15;;;;;;;7.84;66.15;99047.53;18367917;32;20108;-64
2022/04/02 11:41:36;;;;;;;13.70;5.62;;;;;;;7.58;68.01;99063.44;18369433;32;20708;-64
2022/04/02 11:51:41;;;;;;;15.02;6.35;;;;;;;7.49;68.37;99060.06;18370164;32;20082;-64
2022/04/02 12:01:48;;;;;;;15.48;8.13;;;;;;;7.70;68.73;99062.44;18368579;32;20377;-64
2022/04/02 12:11:56;;;;;;;15.13;7.47;;;;;;;7.41;69.84;99074.03;18367835;32;20102;-64
2022/04/02 12:21:59;;;;;;;18.55;8.57;;;;;;;7.58;71.07;99066.03;18352379;32;118512;-64
2022/04/02 12:32:05;;;;;;;18.05;7.68;;;;;;;8.14;67.79;99060.16;18323042;32;20092;-65
2022/04/02 12:42:08;;;;;;;14.43;6.90;;;;;;;7.96;69.28;99054.31;18368691;32;20204;-65
2022/04/02 12:52:15;;;;;;;15.75;6.70;;;;;;;8.07;68.47;99059.38;18369525;32;20089;-64
2022/04/02 13:02:21;;;;;;;14.75;6.50;;;;;;;8.25;66.79;99062.56;18366049;32;20101;-64
2022/04/02 13:12:26;;;;;;;13.13;5.43;;;;;;;8.28;66.93;99062.56;18367362;32;20456;-65
2022/04/02 13:22:30;;;;;;;16.27;7.68;;;;;;;8.36;65.94;99065.03;18359772;32;20097;-64
2022/04/02 13:33:05;;;;;;;14.57;6.05;;;;;;;8.47;66.45;99061.41;18365896;32;20398;-65
2022/04/02 13:43:10;;;;;;;13.32;5.75;;;;;;;8.03;67.76;99068.06;18355606;32;20092;-64
2022/04/02 13:53:19;;;;;;;10.02;4.07;;;;;;;8.01;68.62;99069.84;18366762;32;20096;-64
2022/04/02 14:03:23;;;;;;;5.10;3.12;;;;;;;8.25;69.27;99078.19;18365400;32;20111;-64
2022/04/02 14:13:30;;;;;;;8.90;3.75;;;;;;;7.77;69.03;99080.53;18364181;32;20105;-64
2022/04/02 14:23:36;;;;;;;6.95;3.25;;;;;;;7.83;70.13;99092.56;18364151;32;20097;-64
2022/04/02 14:34:21;;;;;;;8.02;3.85;;;;;;;7.99;68.99;99097.59;18366656;32;20476;-64
2022/04/02 14:44:58;;;;;;;7.15;3.17;;;;;;;7.87;70.51;99106.41;18147409;32;20736;-64
2022/04/02 14:55:35;;;;;;;6.00;1.87;;;;;;;7.65;69.99;99111.84;18150961;32;20114;-64
2022/04/02 15:06:09;;;;;;;3.28;1.83;;;;;;;7.81;67.02;99117.72;18147128;32;20128;-63
2022/04/02 15:16:26;;;;;;;3.17;1.48;;;;;;;7.71;66.16;99136.91;18250911;32;20101;-64
2022/04/02 15:26:32;;;;;;;5.53;1.87;;;;;;;7.31;70.59;99140.75;18359086;32;20077;-64
2022/04/02 15:36:36;;;;;;;4.68;2.00;;;;;;;7.46;69.11;99145.81;18362551;32;20101;-64
2022/04/02 15:46:52;;;;;;;8.60;2.85;;;;;;;7.29;70.73;99158.91;18363058;32;20097;-64
2022/04/02 15:57:08;;;;;;;24.15;10.40;;;;;;;7.37;70.31;99164.06;18352408;32;20393;-64
2022/04/02 16:07:30;;;;;;;5.30;2.65;;;;;;;7.31;69.72;99177.09;18361782;32;20112;-64
2022/04/02 16:17:33;;;;;;;;;;;;;;;6.84;68.87;99184.38;18305938;32;20370;-63
2022/04/02 16:27:42;;;;;;;7.03;2.28;;;;;;;7.14;68.00;99195.41;18314262;32;20285;-63
2022/04/02 16:37:47;;;;;;;5.75;2.70;;;;;;;7.21;67.15;99203.13;18362910;32;20355;-64
2022/04/02 16:47:59;;;;;;;5.33;2.50;;;;;;;7.03;67.76;99217.09;18366544;32;20112;-63
2022/04/02 16:58:03;;;;;;;4.78;2.20;;;;;;;6.93;69.75;99218.03;18368008;32;20101;-64
2022/04/02 17:08:15;;;;;;;5.30;2.75;;;;;;;7.04;68.13;99226.59;18368990;32;20162;-64
2022/04/02 17:18:19;;;;;;;6.72;3.15;;;;;;;6.94;68.14;99230.13;18367367;32;20175;-63
2022/04/02 17:28:27;;;;;;;11.85;4.53;;;;;;;6.51;69.57;99245.03;18367242;32;20097;-63
2022/04/02 17:38:30;;;;;;;8.00;3.70;;;;;;;6.46;72.20;99257.16;18360825;32;20163;-64
2022/04/02 17:48:35;;;;;;;10.80;5.72;;;;;;;6.16;74.04;99263.31;18359554;32;20366;-64
2022/04/02 17:58:40;;;;;;;12.52;6.28;;;;;;;6.34;72.30;99271.03;18352673;32;20124;-63
2022/04/02 18:08:45;;;;;;;11.57;5.80;;;;;;;6.31;72.32;99280.53;18355441;32;20098;-64
2022/04/02 18:18:49;;;;;;;14.40;6.15;;;;;;;6.30;72.64;99286.59;18356226;32;20093;-64
2022/04/02 18:28:54;;;;;;;12.05;5.37;;;;;;;5.99;73.13;99297.00;18353634;32;20142;-64
2022/04/02 18:39:01;;;;;;;13.13;5.80;;;;;;;5.88;72.72;99294.41;18340928;32;20108;-64
2022/04/02 18:49:06;;;;;;;11.35;6.03;;;;;;;5.75;72.37;99311.66;18339333;32;20127;-64
2022/04/02 18:59:09;;;;;;;13.30;5.97;;;;;;;5.58;73.18;99325.47;18325088;32;20201;-64
2022/04/02 19:09:15;;;;;;;10.57;5.15;;;;;;;5.39;72.66;99329.78;18303942;32;20470;-64
2022/04/02 19:19:18;;;;;;;10.30;5.12;;;;;;;5.44;73.05;99340.97;18356899;32;20104;-64
2022/04/02 19:29:23;;;;;;;12.48;5.53;;;;;;;5.51;72.98;99349.66;18365205;32;20094;-64
2022/04/02 19:39:26;;;;;;;10.48;5.22;;;;;;;5.38;72.86;99362.53;18362348;32;20101;-63
2022/04/02 19:49:31;;;;;;;9.77;5.37;;;;;;;5.21;73.57;99359.03;18365116;32;20744;-63
2022/04/02 19:59:34;;;;;;;9.73;4.43;;;;;;;5.28;73.35;99363.38;18359132;32;20101;-64
2022/04/02 20:09:39;;;;;;;8.40;4.22;;;;;;;5.13;73.73;99370.25;18366696;32;20098;-63
2022/04/02 20:19:42;;;;;;;9.90;4.55;;;;;;;5.20;73.37;99360.78;18364961;32;20089;-63
2022/04/02 20:29:48;;;;;;;13.77;7.03;;;;;;;5.13;74.04;99369.37;18368731;32;20089;-63
2022/04/02 20:39:51;;;;;;;10.90;5.22;;;;;;;5.30;74.02;99371.16;18350788;32;20445;-62
2022/04/02 20:49:56;;;;;;;15.25;7.05;;;;;;;5.24;73.77;99384.94;18363415;32;20081;-62
2022/04/02 21:00:00;;;;;;;11.38;5.28;;;;;;;5.02;73.83;99396.94;18366822;32;20081;-62
2022/04/02 21:10:05;;;;;;;9.63;4.68;;;;;;;5.31;72.84;99399.63;18367792;32;20085;-62
2022/04/02 21:20:09;;;;;;;11.68;4.95;;;;;;;4.72;73.36;99414.87;18366304;32;20180;-62
2022/04/02 21:30:14;;;;;;;10.77;6.18;;;;;;;4.19;73.92;99421.41;18365396;32;20081;-62
2022/04/02 21:40:17;;;;;;;12.90;6.97;;;;;;;3.87;75.04;99428.00;18357765;32;20133;-62
2022/04/02 21:50:23;;;;;;;14.23;6.03;;;;;;;4.21;72.64;99437.78;18361630;32;20097;-62
2022/04/02 22:01:03;;;;;;;11.15;5.32;;;;;;;4.11;73.56;99447.19;18361848;32;20093;-63
2022/04/02 22:11:08;;;;;;;10.85;4.65;;;;;;;4.25;74.08;99460.22;18361263;32;20094;-63
2022/04/02 22:21:11;;;;;;;13.38;6.80;;;;;;;4.11;73.25;99473.00;18365424;32;20228;-62
2022/04/02 22:31:16;;;;;;;10.80;5.25;;;;;;;3.74;73.37;99482.13;18365372;32;20145;-62
2022/04/02 22:41:19;;;;;;;13.50;5.75;;;;;;;3.99;71.49;99491.84;18364836;32;20215;-62
2022/04/02 22:51:24;;;;;;;8.60;4.90;;;;;;;3.72;72.45;99499.31;18364023;32;20093;-62
2022/04/02 23:01:27;;;;;;;12.68;5.93;;;;;;;3.70;72.05;99498.44;18372071;32;20111;-63
2022/04/02 23:11:32;;;;;;;12.98;5.82;;;;;;;3.54;73.10;99504.25;18371829;32;20111;-63
2022/04/02 23:21:35;;;;;;;13.05;6.12;;;;;;;3.55;73.32;99518.91;18371779;32;20163;-62
2022/04/02 23:31:40;;;;;;;14.85;7.12;;;;;;;3.69;72.66;99531.97;18371310;32;20097;-62
2022/04/02 23:41:43;;;;;;;10.63;5.37;;;;;;;3.89;72.13;99547.69;18371394;32;20117;-63
2022/04/02 23:51:48;;;;;;;13.25;6.22;;;;;;;3.48;73.51;99548.94;18370776;32;20373;-63
